Time;durP1;ratioP1;P1;durP2;ratioP2;P2;SDS_P1;SDS_P2;PMS_P1;PMS_P2;Temp;Humidity;BMP_temperature;BMP_pressure;BME280_temperature;BME280_humidity;BME280_pressure;Samples;Min_cycle;Max_cycle;Signal;HPM_P1;HPM_P2
2023/01/07 00:02:24;;;;;;;;;;;;;;;25.33;42.33;94665.69;4917810;29;7024;-71
2023/01/07 00:04:52;;;;;;;;;;;;;;;25.33;42.45;94657.44;4927960;28;9060;-71
2023/01/07 00:07:24;;;;;;;;;;;;;;;25.32;42.02;94655.91;4908821;29;7236;-71
2023/01/07 00:09:53;;;;;;;;;;;;;;;25.32;42.35;94655.91;4924784;28;7054;-71
2023/01/07 00:12:19;;;;;;;;;;;;;;;25.32;42.13;94650.41;4910054;29;8154;-71
2023/01/07 00:14:44;;;;;;;;;;;;;;;25.32;42.54;94644.91;4912817;29;7237;-71
2023/01/07 00:17:10;;;;;;;;;;;;;;;25.32;42.43;94644.91;4928239;28;7212;-71
2023/01/07 00:19:37;;;;;;;;;;;;;;;25.29;42.49;94643.16;4927449;29;9020;-71
2023/01/07 00:22:06;;;;;;;;;;;;;;;25.27;43.05;94638.16;4926435;29;10224;-71
2023/01/07 00:24:32;;;;;;;;;;;;;;;25.28;42.56;94633.41;4925911;28;9006;-71
2023/01/07 00:27:01;;;;;;;;;;;;;;;25.28;42.03;94633.41;4919182;29;8996;-71
2023/01/07 00:29:29;;;;;;;;;;;;;;;25.31;42.42;94624.16;4947478;28;7891;-71
2023/01/07 00:31:58;;;;;;;;;;;;;;;25.34;42.69;94628.63;4952248;28;7303;-71
2023/01/07 00:34:28;;;;;;;;;;;;;;;25.33;42.79;94627.91;4985012;28;9001;-71
2023/01/07 00:37:48;;;;;;;;;;;;;;;25.30;42.64;94620.63;4971864;28;9004;-71
2023/01/07 00:39:43;;;;;;;;;;;;;;;25.32;42.30;94622.88;4971901;28;9111;-72
2023/01/07 00:44:58;;;;;;;;;;;;;;;25.34;41.90;94614.88;4972013;28;9074;-72
2023/01/07 00:47:24;;;;;;;;;;;;;;;25.33;42.83;94618.88;4971063;28;8981;-71
2023/01/07 00:49:53;;;;;;;;;;;;;;;25.32;42.19;94611.88;4969562;28;9388;-71
2023/01/07 00:52:25;;;;;;;;;;;;;;;25.31;42.71;94616.66;4979508;28;9019;-71
2023/01/07 00:54:53;;;;;;;;;;;;;;;25.28;42.48;94616.88;4970728;28;9020;-71
2023/01/07 00:57:21;;;;;;;;;;;;;;;25.28;42.48;94614.13;4969054;28;7066;-71
2023/01/07 00:59:47;;;;;;;;;;;;;;;25.27;42.40;94610.63;4970601;28;9117;-72
2023/01/07 01:02:13;;;;;;;;;;;;;;;25.24;42.78;94610.88;4981841;28;7186;-72
2023/01/07 01:04:39;;;;;;;;;;;;;;;25.26;43.11;94611.13;4982702;28;8903;-71
2023/01/07 01:07:05;;;;;;;;;;;;;;;25.29;42.73;94604.63;4984160;28;9752;-71
2023/01/07 01:09:31;;;;;;;;;;;;;;;25.30;43.03;94606.88;4969573;28;9134;-71
2023/01/07 01:11:58;;;;;;;;;;;;;;;25.32;41.94;94609.13;4971770;28;9362;-71
2023/01/07 01:14:30;;;;;;;;;;;;;;;25.31;42.73;94611.13;4955225;28;7278;-71
2023/01/07 01:17:00;;;;;;;;;;;;;;;25.31;41.71;94602.13;4962814;28;8753;-72
2023/01/07 01:19:26;;;;;;;;;;;;;;;25.31;42.79;94602.13;4973441;28;7263;-71
2023/01/07 01:21:52;;;;;;;;;;;;;;;25.31;41.91;94607.63;4965205;28;7044;-71
2023/01/07 01:24:18;;;;;;;;;;;;;;;25.32;42.61;94603.59;4968141;28;9264;-71
2023/01/07 01:26:46;;;;;;;;;;;;;;;25.31;42.74;94607.63;4965231;28;7642;-71
2023/01/07 01:29:15;;;;;;;;;;;;;;;25.30;42.84;94601.38;4970369;28;7069;-71
2023/01/07 01:31:42;;;;;;;;;;;;;;;25.27;42.43;94599.59;4967773;28;7110;-71
2023/01/07 01:34:10;;;;;;;;;;;;;;;25.29;42.77;94596.38;4980599;28;7079;-71
2023/01/07 01:36:38;;;;;;;;;;;;;;;25.27;42.40;94587.88;4966747;28;9097;-71
2023/01/07 01:39:22;;;;;;;;;;;;;;;25.29;42.59;94588.84;4968710;28;9288;-71
2023/01/07 01:42:19;;;;;;;;;;;;;;;25.29;42.34;94596.38;4990095;28;7110;-71
2023/01/07 01:44:55;;;;;;;;;;;;;;;25.25;42.78;94582.13;4967276;28;9205;-71
2023/01/07 01:47:30;;;;;;;;;;;;;;;25.26;42.84;94580.84;4968189;28;9392;-71
2023/01/07 01:50:25;;;;;;;;;;;;;;;25.26;41.97;94589.09;4969314;28;9102;-71
2023/01/07 01:53:04;;;;;;;;;;;;;;;25.25;42.05;94580.09;4968264;28;7966;-71
2023/01/07 01:55:40;;;;;;;;;;;;;;;25.26;42.14;94578.09;4982792;28;9612;-71
2023/01/07 01:58:15;;;;;;;;;;;;;;;25.26;42.04;94575.34;4966819;28;9113;-71
2023/01/07 02:00:54;;;;;;;;;;;;;;;25.27;42.12;94576.84;4965192;28;9108;-71
2023/01/07 02:03:32;;;;;;;;;;;;;;;25.27;42.93;94585.13;4979458;28;9132;-71
2023/01/07 02:06:00;;;;;;;;;;;;;;;25.27;42.33;94572.06;4972450;28;7689;-72
2023/01/07 02:08:31;;;;;;;;;;;;;;;25.28;42.41;94575.59;4964698;28;7321;-71
2023/01/07 02:11:18;;;;;;;;;;;;;;;25.27;42.36;94568.59;4959037;28;9471;-72
2023/01/07 02:14:07;;;;;;;;;;;;;;;25.29;42.26;94571.59;4964238;28;7074;-72
2023/01/07 02:17:12;;;;;;;;;;;;;;;25.30;42.99;94573.06;4973146;28;8955;-71
2023/01/07 02:20:15;;;;;;;;;;;;;;;25.28;42.35;94573.59;4972686;28;7295;-72
2023/01/07 02:23:05;;;;;;;;;;;;;;;25.28;42.83;94573.59;4966660;28;7035;-72
2023/01/07 02:25:42;;;;;;;;;;;;;;;25.28;42.41;94567.31;4955241;28;7087;-71
2023/01/07 02:28:32;;;;;;;;;;;;;;;25.27;42.11;94557.59;4961858;28;7272;-72
2023/01/07 02:31:36;;;;;;;;;;;;;;;25.27;41.95;94552.09;4954665;28;9361;-72
2023/01/07 02:34:19;;;;;;;;;;;;;;;25.26;42.21;94550.56;4894146;29;7276;-71
2023/01/07 02:37:17;;;;;;;;;;;;;;;25.27;41.93;94554.84;4894265;29;9394;-71
2023/01/07 02:39:55;;;;;;;;;;;;;;;25.27;43.07;94544.56;4883933;29;9111;-71
2023/01/07 02:42:46;;;;;;;;;;;;;;;25.26;42.43;94540.31;4908213;29;9029;-71
2023/01/07 02:45:41;;;;;;;;;;;;;;;25.27;42.43;94541.06;4870117;29;7140;-72
2023/01/07 02:48:12;;;;;;;;;;;;;;;25.26;42.77;94531.28;4778912;29;7042;-72
2023/01/07 02:50:38;;;;;;;;;;;;;;;25.26;42.84;94520.28;4782674;29;7299;-72
2023/01/07 02:53:09;;;;;;;;;;;;;;;25.24;42.83;94529.06;4781632;29;8704;-72
2023/01/07 02:55:50;;;;;;;;;;;;;;;25.26;42.18;94517.53;4787667;29;7160;-72
2023/01/07 02:58:29;;;;;;;;;;;;;;;25.25;42.72;94513.28;4792093;29;8968;-72
2023/01/07 03:01:32;;;;;;;;;;;;;;;25.26;42.06;94512.78;4795786;29;9472;-72
2023/01/07 03:04:37;;;;;;;;;;;;;;;25.27;42.78;94514.25;4799901;29;6988;-71
2023/01/07 03:07:30;;;;;;;;;;;;;;;25.28;43.06;94510.28;4799307;29;7297;-72
2023/01/07 03:10:20;;;;;;;;;;;;;;;25.26;42.59;94506.53;4778688;29;8265;-72
2023/01/07 03:13:12;;;;;;;;;;;;;;;25.27;42.94;94505.28;4777518;29;9005;-72
2023/01/07 03:15:54;;;;;;;;;;;;;;;25.27;43.13;94513.53;4790769;29;8750;-71
2023/01/07 03:18:27;;;;;;;;;;;;;;;25.26;41.97;94509.28;4797869;29;7340;-71
2023/01/07 03:21:02;;;;;;;;;;;;;;;25.24;42.14;94504.28;4800488;29;7057;-71
2023/01/07 03:23:31;;;;;;;;;;;;;;;25.23;43.03;94500.03;4874679;28;7003;-71
2023/01/07 03:26:03;;;;;;;;;;;;;;;25.25;42.71;94496.78;4977165;28;9052;-71
2023/01/07 03:28:35;;;;;;;;;;;;;;;25.25;43.12;94492.00;4976031;28;7597;-72
2023/01/07 03:31:07;;;;;;;;;;;;;;;25.25;42.34;94497.50;4961031;28;7461;-72
2023/01/07 03:33:50;;;;;;;;;;;;;;;25.24;43.09;94485.00;4976003;28;9225;-72
2023/01/07 03:36:22;;;;;;;;;;;;;;;25.26;42.83;94476.25;4978062;28;9359;-72
2023/01/07 03:39:07;;;;;;;;;;;;;;;25.27;42.27;94477.75;4973451;28;7006;-71
2023/01/07 03:44:28;;;;;;;;;;;;;;;25.25;42.77;94467.22;4971087;28;7218;-71
2023/01/07 03:46:57;;;;;;;;;;;;;;;25.24;42.51;94470.50;4972803;28;7299;-72
2023/01/07 03:49:28;;;;;;;;;;;;;;;25.24;43.05;94470.50;4991047;28;8990;-71
2023/01/07 03:51:58;;;;;;;;;;;;;;;25.25;42.11;94466.50;4991732;28;9364;-71
2023/01/07 03:54:25;;;;;;;;;;;;;;;25.23;42.80;94460.72;4991814;28;7266;-72
2023/01/07 03:56:56;;;;;;;;;;;;;;;25.25;42.11;94458.97;4968208;28;9128;-71
2023/01/07 03:59:25;;;;;;;;;;;;;;;25.26;42.63;94454.22;4970336;28;9102;-71
2023/01/07 04:01:51;;;;;;;;;;;;;;;25.25;42.57;94458.97;4972477;28;9104;-71
2023/01/07 04:04:19;;;;;;;;;;;;;;;25.24;42.36;94451.22;4986736;28;7199;-71
2023/01/07 04:06:46;;;;;;;;;;;;;;;25.24;42.70;94445.72;4973253;28;9019;-71
2023/01/07 04:09:20;;;;;;;;;;;;;;;25.25;42.29;94452.72;4983647;28;7047;-71
2023/01/07 04:11:49;;;;;;;;;;;;;;;25.24;42.98;94443.72;4970933;28;9026;-71
2023/01/07 04:14:17;;;;;;;;;;;;;;;25.25;42.63;94447.97;4973063;28;7036;-71
2023/01/07 04:16:45;;;;;;;;;;;;;;;25.24;42.35;94437.47;4983228;28;7254;-71
2023/01/07 04:19:11;;;;;;;;;;;;;;;25.25;42.46;94436.22;4970596;28;7370;-71
2023/01/07 04:21:44;;;;;;;;;;;;;;;25.24;42.79;94440.97;4974583;28;9391;-71
2023/01/07 04:24:12;;;;;;;;;;;;;;;25.24;42.26;94438.22;4971043;28;7061;-72
2023/01/07 04:26:40;;;;;;;;;;;;;;;25.25;42.94;94436.22;4971653;28;8594;-72
2023/01/07 04:29:06;;;;;;;;;;;;;;;25.28;42.94;94424.19;4972521;28;7329;-72
2023/01/07 04:31:36;;;;;;;;;;;;;;;25.27;42.10;94417.91;4970084;28;7246;-72
2023/01/07 04:34:04;;;;;;;;;;;;;;;25.27;42.24;94414.44;4985054;28;7245;-72
2023/01/07 04:36:33;;;;;;;;;;;;;;;25.27;42.03;94417.19;4972796;28;7250;-71
2023/01/07 04:39:04;;;;;;;;;;;;;;;25.27;42.64;94417.19;4988555;28;7023;-71
2023/01/07 04:41:32;;;;;;;;;;;;;;;25.24;42.37;94407.94;4948023;28;9154;-71
2023/01/07 04:44:14;;;;;;;;;;;;;;;25.26;42.22;94412.94;4974047;28;7268;-71
2023/01/07 04:46:42;;;;;;;;;;;;;;;25.25;42.02;94411.44;4964881;28;7923;-71
2023/01/07 04:49:11;;;;;;;;;;;;;;;25.23;42.75;94416.69;4970913;28;7234;-72
2023/01/07 04:51:39;;;;;;;;;;;;;;;25.24;42.53;94413.44;4971669;28;6993;-71
2023/01/07 04:54:08;;;;;;;;;;;;;;;25.27;42.65;94411.69;4981901;28;7040;-71
2023/01/07 04:56:36;;;;;;;;;;;;;;;25.26;42.89;94405.41;4970592;28;8744;-71
2023/01/07 04:59:02;;;;;;;;;;;;;;;25.25;42.57;94401.16;4968791;28;7104;-71
2023/01/07 05:01:29;;;;;;;;;;;;;;;25.27;42.46;94395.88;4986734;28;7381;-71
2023/01/07 05:03:56;;;;;;;;;;;;;;;25.26;42.65;94393.66;4969663;28;9018;-70
2023/01/07 05:06:22;;;;;;;;;;;;;;;25.25;41.95;94392.91;4970183;28;7663;-71
2023/01/07 05:08:48;;;;;;;;;;;;;;;25.25;42.75;94398.41;4968420;28;7247;-71
2023/01/07 05:11:20;;;;;;;;;;;;;;;25.24;42.93;94396.16;4987449;28;7359;-71
2023/01/07 05:13:48;;;;;;;;;;;;;;;25.23;42.27;94391.91;4965626;28;8681;-71
2023/01/07 05:16:19;;;;;;;;;;;;;;;25.23;42.48;94400.16;4986319;28;7023;-70
2023/01/07 05:18:45;;;;;;;;;;;;;;;25.22;43.00;94404.94;4969967;28;8445;-71
2023/01/07 05:21:11;;;;;;;;;;;;;;;25.23;42.62;94397.41;4963277;28;9148;-71
2023/01/07 05:23:39;;;;;;;;;;;;;;;25.22;41.93;94384.91;4966296;28;7923;-71
2023/01/07 05:26:05;;;;;;;;;;;;;;;25.21;42.80;94380.66;4967129;28;7077;-71
2023/01/07 05:28:31;;;;;;;;;;;;;;;25.21;42.12;94386.16;4970429;28;8355;-71
2023/01/07 05:31:03;;;;;;;;;;;;;;;25.19;42.00;94378.41;4975643;28;9122;-71
2023/01/07 05:33:34;;;;;;;;;;;;;;;25.19;42.60;94380.41;4990690;28;9152;-71
2023/01/07 05:36:12;;;;;;;;;;;;;;;25.21;41.81;94380.66;4970503;28;7402;-71
2023/01/07 05:38:47;;;;;;;;;;;;;;;25.22;42.11;94384.91;4963054;28;7088;-71
2023/01/07 05:41:26;;;;;;;;;;;;;;;25.26;41.77;94375.13;4973493;28;9001;-72
2023/01/07 05:43:52;;;;;;;;;;;;;;;25.32;41.72;94373.09;4983258;28;9056;-71
2023/01/07 05:46:24;;;;;;;;;;;;;;;25.35;42.23;94376.84;4969202;28;7024;-71
2023/01/07 05:48:55;;;;;;;;;;;;;;;25.37;41.82;94379.84;4972491;28;8633;-71
2023/01/07 05:51:24;;;;;;;;;;;;;;;25.35;42.16;94374.09;4973422;28;9313;-71
2023/01/07 05:53:51;;;;;;;;;;;;;;;25.40;41.78;94376.06;4987848;28;7291;-71
2023/01/07 05:56:18;;;;;;;;;;;;;;;25.41;41.87;94372.03;4967073;28;7052;-71
2023/01/07 05:58:48;;;;;;;;;;;;;;;25.43;41.63;94369.56;4986501;28;7231;-71
2023/01/07 06:01:21;;;;;;;;;;;;;;;25.47;41.65;94374.81;4974057;28;7411;-71
2023/01/07 06:03:47;;;;;;;;;;;;;;;25.46;41.32;94370.53;4964864;28;8776;-72
2023/01/07 06:06:12;;;;;;;;;;;;;;;25.48;41.50;94373.53;4986001;28;9067;-71
2023/01/07 06:08:41;;;;;;;;;;;;;;;25.48;41.49;94373.53;4971310;28;7498;-71
2023/01/07 06:11:07;;;;;;;;;;;;;;;25.48;41.98;94371.53;4970139;28;7045;-71
2023/01/07 06:13:34;;;;;;;;;;;;;;;25.48;42.12;94381.78;4965951;28;9695;-71
2023/01/07 06:16:02;;;;;;;;;;;;;;;25.47;41.07;94378.28;4966187;28;7080;-70
2023/01/07 06:18:28;;;;;;;;;;;;;;;25.48;41.94;94371.53;4971193;28;9040;-70
2023/01/07 06:21:00;;;;;;;;;;;;;;;25.48;41.40;94371.53;4971334;28;7221;-70
2023/01/07 06:23:27;;;;;;;;;;;;;;;25.43;41.12;94370.31;4973297;28;7166;-71
2023/01/07 06:25:53;;;;;;;;;;;;;;;25.41;41.63;94370.03;4988646;28;7550;-71
2023/01/07 06:28:35;;;;;;;;;;;;;;;25.40;41.25;94370.56;4981101;28;9313;-72
2023/01/07 06:31:08;;;;;;;;;;;;;;;25.37;42.39;94366.06;4980326;28;7341;-72
2023/01/07 06:33:40;;;;;;;;;;;;;;;25.33;41.62;94365.59;4972568;28;8703;-72
2023/01/07 06:36:09;;;;;;;;;;;;;;;25.30;42.47;94369.34;4970447;28;7024;-72
2023/01/07 06:38:40;;;;;;;;;;;;;;;25.28;41.69;94371.88;4974316;28;7035;-72
2023/01/07 06:41:09;;;;;;;;;;;;;;;25.27;42.10;94367.63;4968886;28;8645;-73
2023/01/07 06:43:40;;;;;;;;;;;;;;;25.26;41.98;94363.38;4985111;28;9322;-72
2023/01/07 06:46:20;;;;;;;;;;;;;;;25.25;42.57;94359.88;4957655;28;8241;-72
2023/01/07 06:49:15;;;;;;;;;;;;;;;25.29;41.63;94367.88;4963450;28;9105;-72
2023/01/07 06:51:41;;;;;;;;;;;;;;;25.29;41.74;94365.13;4914927;29;9688;-72
2023/01/07 06:54:18;;;;;;;;;;;;;;;25.28;42.00;94360.84;4930222;29;7276;-71
2023/01/07 06:56:49;;;;;;;;;;;;;;;25.26;42.29;94350.38;4919490;29;7015;-72
2023/01/07 06:59:15;;;;;;;;;;;;;;;25.27;42.04;94353.88;4925528;29;7149;-72
2023/01/07 07:01:43;;;;;;;;;;;;;;;25.23;41.86;94356.88;4917275;29;9303;-72
2023/01/07 07:04:35;;;;;;;;;;;;;;;25.18;42.04;94354.16;4914855;29;7275;-71
2023/01/07 07:07:02;;;;;;;;;;;;;;;25.17;42.88;94350.66;4917943;29;9832;-73
2023/01/07 07:09:29;;;;;;;;;;;;;;;25.23;42.23;94350.63;4915839;29;9876;-72
2023/01/07 07:12:06;;;;;;;;;;;;;;;25.21;42.78;94353.13;4919999;29;9364;-73
2023/01/07 07:14:35;;;;;;;;;;;;;;;25.28;42.36;94352.59;4911750;29;7490;-71
2023/01/07 07:17:46;;;;;;;;;;;;;;;25.26;42.68;94350.38;4913574;29;9014;-70
2023/01/07 07:20:21;;;;;;;;;;;;;;;25.21;42.58;94359.38;4859688;29;7577;-70
2023/01/07 07:22:48;;;;;;;;;;;;;;;25.20;42.22;94355.16;4857370;29;9341;-70
2023/01/07 07:25:14;;;;;;;;;;;;;;;25.16;42.53;94360.19;4870967;29;7259;-71
2023/01/07 07:27:43;;;;;;;;;;;;;;;25.19;42.07;94352.91;4878117;29;7047;-71
2023/01/07 07:30:10;;;;;;;;;;;;;;;25.23;42.42;94345.88;4915358;29;8835;-70
2023/01/07 07:32:37;;;;;;;;;;;;;;;25.26;42.52;94342.09;4939456;29;7262;-71
2023/01/07 07:35:12;;;;;;;;;;;;;;;25.33;42.04;94341.56;4930246;29;7017;-71
2023/01/07 07:37:47;;;;;;;;;;;;;;;25.39;41.79;94347.03;4934100;29;7270;-71
2023/01/07 07:40:14;;;;;;;;;;;;;;;25.42;41.82;94346.78;4918844;29;8758;-71
2023/01/07 07:42:58;;;;;;;;;;;;;;;25.44;41.86;94340.78;4922313;29;7759;-71
2023/01/07 07:45:35;;;;;;;;;;;;;;;25.47;41.73;94341.75;4915439;29;7016;-71
2023/01/07 07:48:04;;;;;;;;;;;;;;;25.47;41.25;94336.97;4923300;29;7296;-71
2023/01/07 07:50:39;;;;;;;;;;;;;;;25.47;41.48;94325.97;4908541;29;7893;-71
2023/01/07 07:53:08;;;;;;;;;;;;;;;25.44;41.41;94338.03;4931210;29;9152;-70
2023/01/07 07:56:17;;;;;;;;;;;;;;;25.42;42.19;94340.53;4914113;29;8772;-71
2023/01/07 07:58:58;;;;;;;;;;;;;;;25.42;42.08;94337.78;4957274;28;9754;-71
2023/01/07 08:01:24;;;;;;;;;;;;;;;25.39;41.64;94334.00;4971929;28;7283;-71
2023/01/07 08:04:00;;;;;;;;;;;;;;;25.44;41.72;94332.50;4969209;28;9752;-71
2023/01/07 08:06:34;;;;;;;;;;;;;;;25.42;41.80;94341.25;4975814;28;7037;-71
2023/01/07 08:12:43;;;;;;;;;;;;;;;25.39;42.50;94342.28;4972561;28;6966;-71
2023/01/07 08:15:28;;;;;;;;;;;;;;;25.38;41.88;94329.03;4971942;28;9100;-71
2023/01/07 08:18:04;;;;;;;;;;;;;;;25.33;42.20;94332.56;4962408;28;7251;-71
2023/01/07 08:20:49;;;;;;;;;;;;;;;25.32;42.73;94325.53;4980923;28;7252;-71
2023/01/07 08:23:30;;;;;;;;;;;;;;;25.31;41.93;94341.34;4973939;28;9041;-71
2023/01/07 08:26:01;;;;;;;;;;;;;;;25.32;41.60;94331.03;4990063;28;9759;-71
2023/01/07 08:28:29;;;;;;;;;;;;;;;25.32;41.69;94339.31;4973954;28;9073;-71
2023/01/07 08:31:02;;;;;;;;;;;;;;;25.30;41.72;94339.06;4985143;28;7212;-71
2023/01/07 08:33:41;;;;;;;;;;;;;;;25.27;42.52;94340.09;4967848;28;9309;-71
2023/01/07 08:36:08;;;;;;;;;;;;;;;25.24;42.58;94335.59;4986853;28;7283;-70
2023/01/07 08:38:38;;;;;;;;;;;;;;;25.23;43.09;94331.34;4971116;28;8056;-71
2023/01/07 08:41:06;;;;;;;;;;;;;;;25.21;43.09;94331.13;4978516;28;7366;-71
2023/01/07 08:43:35;;;;;;;;;;;;;;;25.21;43.29;94339.38;4980905;28;7647;-71
2023/01/07 08:46:01;;;;;;;;;;;;;;;25.20;43.12;94335.88;4968414;28;7645;-71
2023/01/07 08:48:32;;;;;;;;;;;;;;;25.25;43.01;94331.63;4973496;28;7565;-71
2023/01/07 08:50:58;;;;;;;;;;;;;;;25.29;43.76;94326.56;4968331;28;9145;-71
2023/01/07 08:53:35;;;;;;;;;;;;;;;25.26;43.72;94333.09;4964967;28;7055;-72
2023/01/07 08:56:05;;;;;;;;;;;;;;;25.24;42.95;94332.84;4969752;28;9417;-71
2023/01/07 08:59:02;;;;;;;;;;;;;;;25.25;43.25;94331.63;4958576;28;7275;-72
2023/01/07 09:01:28;;;;;;;;;;;;;;;25.26;43.47;94333.09;4904163;29;7046;-71
2023/01/07 09:04:07;;;;;;;;;;;;;;;25.24;44.00;94333.63;4892353;29;7250;-71
2023/01/07 09:06:33;;;;;;;;;;;;;;;25.26;43.52;94328.34;4895343;29;8604;-70
2023/01/07 09:08:59;;;;;;;;;;;;;;;25.26;44.21;94333.09;4898864;29;7025;-70
2023/01/07 09:11:29;;;;;;;;;;;;;;;25.30;43.89;94333.56;4888784;29;7457;-71
2023/01/07 09:13:54;;;;;;;;;;;;;;;25.31;43.39;94329.56;4905730;29;7029;-70
2023/01/07 09:16:20;;;;;;;;;;;;;;;25.31;43.53;94330.31;4891755;29;7335;-70
2023/01/07 09:18:49;;;;;;;;;;;;;;;25.31;43.06;94327.56;4891194;29;9034;-69
2023/01/07 09:21:19;;;;;;;;;;;;;;;25.28;43.20;94328.56;4889854;29;9393;-69
2023/01/07 09:23:48;;;;;;;;;;;;;;;25.33;43.01;94327.81;4874707;29;7018;-69
2023/01/07 09:26:14;;;;;;;;;;;;;;;25.31;43.05;94330.31;4907197;29;9363;-69
2023/01/07 09:28:40;;;;;;;;;;;;;;;25.28;43.65;94327.81;4907033;29;8368;-70
2023/01/07 09:31:06;;;;;;;;;;;;;;;25.29;43.88;94332.09;4907975;29;7102;-70
2023/01/07 09:33:33;;;;;;;;;;;;;;;25.26;43.83;94328.34;4881144;29;7413;-70
2023/01/07 09:35:59;;;;;;;;;;;;;;;25.29;43.28;94327.31;4895818;29;9179;-70
2023/01/07 09:38:27;;;;;;;;;;;;;;;25.28;43.95;94325.06;4952744;28;8777;-71
2023/01/07 09:40:56;;;;;;;;;;;;;;;25.31;43.47;94329.56;4966131;28;9115;-70
2023/01/07 09:43:42;;;;;;;;;;;;;;;25.35;44.05;94325.28;4971084;28;8667;-70
2023/01/07 09:46:18;;;;;;;;;;;;;;;25.36;43.90;94326.75;4971142;28;9023;-71
2023/01/07 09:48:58;;;;;;;;;;;;;;;25.39;43.42;94328.50;4973798;28;9072;-71
2023/01/07 09:51:35;;;;;;;;;;;;;;;25.36;43.91;94337.03;4972382;28;9105;-71
2023/01/07 09:54:08;;;;;;;;;;;;;;;25.39;43.48;94330.50;4966566;28;8941;-71
2023/01/07 09:56:38;;;;;;;;;;;;;;;25.41;43.20;94325.22;4970798;28;9399;-71
2023/01/07 09:59:15;;;;;;;;;;;;;;;25.43;42.86;94325.50;4983558;28;9012;-71
2023/01/07 10:02:05;;;;;;;;;;;;;;;25.47;42.70;94328.72;4966340;28;8968;-71
2023/01/07 10:04:56;;;;;;;;;;;;;;;25.47;43.88;94325.97;4968424;28;9027;-71
2023/01/07 10:07:50;;;;;;;;;;;;;;;25.46;43.48;94324.50;4973410;28;7607;-72
2023/01/07 10:10:33;;;;;;;;;;;;;;;25.46;43.53;94318.97;4957896;28;7116;-72
2023/01/07 10:13:38;;;;;;;;;;;;;;;25.50;43.08;94318.69;4982305;28;9000;-72
2023/01/07 10:16:03;;;;;;;;;;;;;;;25.51;43.49;94314.69;4955527;28;7911;-72
2023/01/07 10:18:49;;;;;;;;;;;;;;;25.47;43.21;94309.44;4968138;28;6994;-72
2023/01/07 10:21:38;;;;;;;;;;;;;;;25.47;43.25;94314.94;4967356;28;7021;-72
2023/01/07 10:24:19;;;;;;;;;;;;;;;25.48;43.01;94305.44;4968747;28;9025;-72
2023/01/07 10:26:52;;;;;;;;;;;;;;;25.49;43.38;94312.44;4973261;28;7511;-72
2023/01/07 10:29:38;;;;;;;;;;;;;;;25.50;43.11;94299.41;4966135;28;9439;-72
2023/01/07 10:32:13;;;;;;;;;;;;;;;25.51;42.42;94296.16;4955584;28;7576;-72
2023/01/07 10:35:01;;;;;;;;;;;;;;;25.57;42.77;94302.38;4962737;28;8605;-70
2023/01/07 10:37:40;;;;;;;;;;;;;;;25.56;41.38;94297.34;4978131;28;7262;-71
2023/01/07 10:40:26;;;;;;;;;;;;;;;25.50;41.96;94302.16;4966270;28;9109;-71
2023/01/07 10:43:26;;;;;;;;;;;;;;;25.45;41.50;94298.19;4977354;28;9155;-71
2023/01/07 10:45:52;;;;;;;;;;;;;;;25.44;42.61;94288.47;4952236;28;7369;-70
2023/01/07 10:48:33;;;;;;;;;;;;;;;25.44;42.63;94282.94;4983198;28;7114;-71
2023/01/07 10:51:36;;;;;;;;;;;;;;;25.44;42.59;94277.44;4968040;28;7241;-71
2023/01/07 10:54:23;;;;;;;;;;;;;;;25.46;41.93;94274.91;4954433;28;9020;-70
2023/01/07 10:57:32;;;;;;;;;;;;;;;25.48;41.72;94269.66;4973677;28;9027;-70
2023/01/07 11:00:05;;;;;;;;;;;;;;;25.48;41.54;94264.13;4958892;28;7099;-70
2023/01/07 11:02:45;;;;;;;;;;;;;;;25.49;42.12;94262.13;4962181;28;9035;-70
2023/01/07 11:05:49;;;;;;;;;;;;;;;25.49;41.99;94257.34;4966183;28;7106;-71
2023/01/07 11:08:27;;;;;;;;;;;;;;;25.52;42.35;94258.34;4871817;29;7035;-71
2023/01/07 11:10:57;;;;;;;;;;;;;;;25.55;42.31;94260.84;4859918;29;6993;-71
2023/01/07 11:14:00;;;;;;;;;;;;;;;25.55;42.83;94255.31;4877574;29;7872;-72
2023/01/07 11:16:59;;;;;;;;;;;;;;;25.59;42.54;94255.03;4819273;29;10469;-70
2023/01/07 11:19:55;;;;;;;;;;;;;;;25.62;42.68;94254.75;4815273;29;8952;-70
2023/01/07 11:22:35;;;;;;;;;;;;;;;25.62;43.16;94251.25;4819497;29;7279;-72
2023/01/07 11:25:26;;;;;;;;;;;;;;;25.68;43.88;94243.69;4802883;29;7300;-71
2023/01/07 11:27:57;;;;;;;;;;;;;;;25.69;43.35;94242.41;4804396;29;7542;-71
2023/01/07 11:30:37;;;;;;;;;;;;;;;25.72;43.68;94246.91;4816921;29;7691;-71
2023/01/07 11:33:54;;;;;;;;;;;;;;;25.76;44.38;94237.09;4817363;29;7199;-71
2023/01/07 11:36:56;;;;;;;;;;;;;;;25.79;43.72;94230.56;4735833;30;7736;-71
2023/01/07 11:39:56;;;;;;;;;;;;;;;25.81;44.70;94225.28;4746036;30;7323;-71
2023/01/07 11:42:38;;;;;;;;;;;;;;;25.82;44.66;94220.50;4752241;30;7369;-71
2023/01/07 11:45:22;;;;;;;;;;;;;;;25.85;44.04;94217.47;4769913;30;9297;-71
2023/01/07 11:48:41;;;;;;;;;;;;;;;25.90;45.13;94215.94;4784269;30;9249;-71
2023/01/07 11:51:16;;;;;;;;;;;;;;;25.91;44.80;94209.13;4784995;29;7275;-71
2023/01/07 11:54:01;;;;;;;;;;;;;;;25.91;43.93;94212.66;4781816;29;8937;-71
2023/01/07 11:56:46;;;;;;;;;;;;;;;25.91;44.66;94193.34;4806872;29;9008;-71
2023/01/07 11:59:21;;;;;;;;;;;;;;;25.92;44.41;94188.59;4862562;29;7234;-71
2023/01/07 12:01:51;;;;;;;;;;;;;;;25.92;44.75;94189.34;4876925;29;7025;-71
2023/01/07 12:04:35;;;;;;;;;;;;;;;25.92;44.97;94183.84;4881905;29;9087;-71
2023/01/07 12:07:17;;;;;;;;;;;;;;;25.92;44.74;94175.56;4894929;29;7030;-71
2023/01/07 12:09:47;;;;;;;;;;;;;;;25.93;44.25;94162.53;4895708;29;9391;-71
2023/01/07 12:15:58;;;;;;;;;;;;;;;25.98;44.55;94161.72;4934013;28;7131;-71
2023/01/07 12:19:15;;;;;;;;;;;;;;;26.00;44.34;94156.44;4926679;29;7308;-72
2023/01/07 12:22:01;;;;;;;;;;;;;;;26.02;44.78;94146.38;4910594;29;7255;-71
2023/01/07 12:25:04;;;;;;;;;;;;;;;26.04;44.01;94143.09;4907217;29;9232;-71
2023/01/07 12:27:39;;;;;;;;;;;;;;;26.06;44.85;94140.56;4915682;29;8934;-71
2023/01/07 12:30:37;;;;;;;;;;;;;;;26.07;44.63;94140.06;4912076;29;9040;-71
2023/01/07 12:36:41;;;;;;;;;;;;;;;26.11;44.36;94124.00;4911831;29;9040;-71
2023/01/07 12:39:29;;;;;;;;;;;;;;;26.12;44.02;94119.97;4902569;29;7033;-71
2023/01/07 12:42:22;;;;;;;;;;;;;;;26.14;44.74;94111.94;4894739;29;10813;-72
2023/01/07 12:44:58;;;;;;;;;;;;;;;26.19;44.01;94118.63;4912493;29;8717;-72
2023/01/07 12:47:40;;;;;;;;;;;;;;;26.22;43.92;94109.34;4899130;29;7008;-72
2023/01/07 12:50:17;;;;;;;;;;;;;;;26.26;43.58;94106.25;4901965;29;9414;-71
2023/01/07 12:52:50;;;;;;;;;;;;;;;26.26;44.12;94100.75;4917128;29;7277;-72
2023/01/07 12:55:20;;;;;;;;;;;;;;;26.28;44.42;94104.47;4912966;29;7266;-71
2023/01/07 12:58:17;;;;;;;;;;;;;;;26.30;44.50;94101.19;4950312;28;8961;-71
2023/01/07 13:00:49;;;;;;;;;;;;;;;26.32;44.26;94104.19;4964791;28;7019;-71
2023/01/07 13:03:18;;;;;;;;;;;;;;;26.34;44.18;94093.38;4967035;28;7139;-71
2023/01/07 13:05:45;;;;;;;;;;;;;;;26.34;43.62;94091.34;4966502;28;7231;-71
2023/01/07 13:08:34;;;;;;;;;;;;;;;26.35;43.80;94092.84;4967872;28;7268;-71
2023/01/07 13:11:19;;;;;;;;;;;;;;;26.38;44.56;94086.28;4960921;28;7172;-71
2023/01/07 13:13:54;;;;;;;;;;;;;;;26.40;44.33;94077.50;4960734;28;7282;-71
2023/01/07 13:16:27;;;;;;;;;;;;;;;26.42;43.91;94084.00;4965347;28;9031;-71
2023/01/07 13:19:01;;;;;;;;;;;;;;;26.42;44.09;94075.72;4989159;28;7264;-71
2023/01/07 13:21:39;;;;;;;;;;;;;;;26.46;43.78;94081.66;4989042;28;7230;-71
2023/01/07 13:24:32;;;;;;;;;;;;;;;26.48;43.68;94078.38;4967034;28;7877;-71
2023/01/07 13:27:10;;;;;;;;;;;;;;;26.48;41.87;94078.38;4969063;28;8993;-71
2023/01/07 13:30:13;;;;;;;;;;;;;;;26.46;42.52;94067.88;4972601;28;7059;-71
2023/01/07 13:33:08;;;;;;;;;;;;;;;26.48;42.03;94067.34;4966391;28;7256;-70
2023/01/07 13:35:54;;;;;;;;;;;;;;;26.51;42.32;94060.78;4971644;28;7128;-71
2023/01/07 13:38:55;;;;;;;;;;;;;;;26.54;42.68;94054.97;4985075;28;9076;-70
2023/01/07 13:41:46;;;;;;;;;;;;;;;26.56;41.90;94057.94;4971099;28;9116;-71
2023/01/07 13:45:06;;;;;;;;;;;;;;;26.58;42.13;94060.91;4967343;28;7301;-70
2023/01/07 13:47:49;;;;;;;;;;;;;;;26.61;42.19;94056.38;4932532;28;7758;-70
2023/01/07 13:50:43;;;;;;;;;;;;;;;26.63;41.91;94062.09;4933645;28;7251;-71
2023/01/07 13:53:32;;;;;;;;;;;;;;;26.66;41.46;94063.81;4924769;28;9467;-69
2023/01/07 13:56:24;;;;;;;;;;;;;;;26.70;42.12;94067.75;4927592;28;9156;-69
2023/01/07 13:58:55;;;;;;;;;;;;;;;26.73;42.25;94055.69;4941564;28;7572;-71
2023/01/07 14:01:29;;;;;;;;;;;;;;;26.78;42.16;94056.88;4919013;28;7975;-70
2023/01/07 14:04:18;;;;;;;;;;;;;;;26.80;41.57;94055.06;4928629;28;8972;-70